Time;durP1;ratioP1;P1;durP2;ratioP2;P2;SDS_P1;SDS_P2;PMS_P1;PMS_P2;Temp;Humidity;BMP_temperature;BMP_pressure;BME280_temperature;BME280_humidity;BME280_pressure;Samples;Min_cycle;Max_cycle;Signal;HPM_P1;HPM_P2
2021/08/07 00:00:19;;;;;;;1.95;1.15;;;18.20;98.00;;;;;;5107212;28;20088;-89
2021/08/07 00:02:47;;;;;;;5.05;1.33;;;18.20;98.00;;;;;;5099925;28;20115;-88
2021/08/07 00:05:13;;;;;;;4.45;1.35;;;18.20;98.00;;;;;;5098168;28;20389;-89
2021/08/07 00:07:41;;;;;;;2.42;1.23;;;18.10;98.00;;;;;;5098272;28;20039;-88
2021/08/07 00:10:18;;;;;;;4.00;1.52;;;18.20;98.00;;;;;;5098364;28;20119;-89
2021/08/07 00:12:44;;;;;;;2.88;1.38;;;18.20;98.10;;;;;;5103727;28;20028;-88
2021/08/07 00:15:44;;;;;;;1.52;1.20;;;18.20;98.10;;;;;;5111880;28;20051;-89
2021/08/07 00:18:17;;;;;;;5.25;1.70;;;18.20;98.20;;;;;;5098853;28;20197;-89
2021/08/07 00:20:43;;;;;;;4.85;1.63;;;18.20;98.30;;;;;;5098173;28;20040;-88
2021/08/07 00:23:14;;;;;;;3.42;1.73;;;18.20;98.40;;;;;;5099103;28;20036;-89
2021/08/07 00:25:47;;;;;;;3.97;1.52;;;18.20;98.40;;;;;;5098779;28;20439;-89
2021/08/07 00:28:28;;;;;;;;;;;;;;;;;;;;;
2021/08/07 00:31:23;;;;;;;1.85;1.20;;;18.20;98.40;;;;;;5099868;28;20028;-90
2021/08/07 00:34:12;;;;;;;5.30;1.30;;;18.20;98.20;;;;;;5104546;28;20044;-89
2021/08/07 00:40:30;;;;;;;3.17;1.13;;;18.20;98.00;;;;;;5064895;28;20100;-90
2021/08/07 00:43:37;;;;;;;;;;;;;;;;;;;;;
2021/08/07 00:49:40;;;;;;;5.38;1.30;;;18.30;98.20;;;;;;5098883;28;20124;-89
2021/08/07 00:52:17;;;;;;;3.22;1.00;;;18.30;97.90;;;;;;5098046;28;20040;-89
2021/08/07 00:54:59;;;;;;;4.88;1.80;;;18.30;97.90;;;;;;5098642;28;20054;-89
2021/08/07 00:57:25;;;;;;;3.63;1.33;;;18.30;97.90;;;;;;5097628;28;20040;-89
2021/08/07 00:59:54;;;;;;;2.30;1.27;;;18.30;97.70;;;;;;5097801;28;20126;-88
2021/08/07 01:02:22;;;;;;;2.08;1.70;;;18.30;97.50;;;;;;5098016;28;20190;-87
2021/08/07 01:05:01;;;;;;;2.03;1.27;;;18.30;97.60;;;;;;5097696;28;20031;-89
2021/08/07 01:08:04;;;;;;;2.05;1.40;;;18.30;97.60;;;;;;5098305;28;20389;-88
2021/08/07 01:10:42;;;;;;;8.07;1.30;;;18.30;97.50;;;;;;5101193;28;20389;-89
2021/08/07 01:14:04;;;;;;;2.05;1.23;;;18.30;97.60;;;;;;5098688;28;20044;-89
2021/08/07 01:16:44;;;;;;;2.38;1.73;;;18.20;97.60;;;;;;5018685;28;20052;-89
2021/08/07 01:19:19;;;;;;;2.03;1.42;;;18.20;97.60;;;;;;5101801;28;20408;-90
2021/08/07 01:22:37;;;;;;;3.05;1.25;;;18.10;97.70;;;;;;5101820;28;20043;-89
2021/08/07 01:26:34;;;;;;;4.22;1.73;;;18.10;97.70;;;;;;5102443;28;20064;-89
2021/08/07 01:29:04;;;;;;;2.20;1.30;;;18.10;97.70;;;;;;5097351;28;20102;-90
2021/08/07 01:31:31;;;;;;;2.45;1.40;;;18.00;97.90;;;;;;5102121;28;20039;-89
2021/08/07 01:34:06;;;;;;;6.05;1.80;;;18.00;97.90;;;;;;5101537;28;20089;-88
2021/08/07 01:36:38;;;;;;;2.10;1.55;;;17.90;97.90;;;;;;5101676;28;20050;-89
2021/08/07 01:39:15;;;;;;;4.00;1.77;;;17.90;97.90;;;;;;5101605;28;20032;-89
2021/08/07 01:42:07;;;;;;;1.35;1.25;;;17.80;97.80;;;;;;5101983;28;20044;-89
2021/08/07 01:59:58;;;;;;;;;;;;;;;;;;;;;
2021/08/07 02:03:07;;;;;;;2.45;1.30;;;17.50;97.80;;;;;;5004390;28;20124;-90
2021/08/07 02:06:27;;;;;;;;;;;;;;;;;;;;;
2021/08/07 02:16:11;;;;;;;5.82;1.67;;;17.30;98.10;;;;;;5061857;28;20039;-90
2021/08/07 02:19:06;;;;;;;2.50;1.30;;;17.30;98.10;;;;;;5101162;28;20082;-88
2021/08/07 02:21:56;;;;;;;3.25;1.40;;;17.30;98.10;;;;;;5094588;28;20040;-89
2021/08/07 02:24:30;;;;;;;2.22;1.67;;;17.30;98.10;;;;;;5100639;28;20165;-89
2021/08/07 02:27:12;;;;;;;1.63;1.20;;;17.30;98.20;;;;;;5104884;28;20039;-88
2021/08/07 02:30:11;;;;;;;2.22;1.55;;;17.30;98.20;;;;;;5105345;28;20301;-89
2021/08/07 02:33:03;;;;;;;2.25;1.10;;;17.30;98.20;;;;;;5134508;27;20066;-89
2021/08/07 02:35:29;;;;;;;3.20;1.80;;;17.30;98.20;;;;;;5100454;28;20120;-88
2021/08/07 02:38:38;;;;;;;;;;;;;;;;;;;;;
2021/08/07 02:41:27;;;;;;;2.10;1.38;;;17.20;98.20;;;;;;5100632;28;20043;-89
2021/08/07 02:44:16;;;;;;;1.75;1.35;;;17.20;98.20;;;;;;5101216;28;20035;-88
2021/08/07 02:50:15;;;;;;;3.22;1.08;;;17.20;98.30;;;;;;5095327;28;20066;-89
2021/08/07 02:53:08;;;;;;;2.15;1.42;;;17.10;98.30;;;;;;5100999;28;20054;-89
2021/08/07 02:55:42;;;;;;;2.42;1.73;;;17.10;98.40;;;;;;5100420;28;20036;-89
2021/08/07 02:58:13;;;;;;;1.73;1.63;;;17.10;98.40;;;;;;5099970;28;20104;-89
2021/08/07 03:00:39;;;;;;;3.75;1.95;;;17.00;98.50;;;;;;5106907;28;20035;-89
2021/08/07 03:03:05;;;;;;;1.50;1.40;;;17.00;98.40;;;;;;5106084;28;20047;-88
2021/08/07 03:06:00;;;;;;;2.10;1.45;;;17.00;98.30;;;;;;5100186;28;20085;-88
2021/08/07 03:08:31;;;;;;;1.80;1.20;;;17.00;98.30;;;;;;5135521;27;20127;-89
2021/08/07 03:11:26;;;;;;;1.60;1.40;;;17.00;98.30;;;;;;5100172;28;20039;-89
2021/08/07 03:14:00;;;;;;;3.47;1.85;;;17.00;98.40;;;;;;5099779;28;20040;-90
2021/08/07 03:16:39;;;;;;;1.48;1.38;;;17.00;98.30;;;;;;5099204;28;20554;-88
2021/08/07 03:19:10;;;;;;;3.83;1.50;;;17.00;98.30;;;;;;5098984;28;20078;-90
2021/08/07 03:21:44;;;;;;;6.47;1.80;;;17.00;98.30;;;;;;5099556;28;20055;-89
2021/08/07 03:24:47;;;;;;;2.08;1.10;;;17.00;98.40;;;;;;5099414;28;20117;-90
2021/08/07 03:27:22;;;;;;;1.75;1.33;;;16.90;98.40;;;;;;5074806;28;20036;-89
2021/08/07 03:29:48;;;;;;;3.38;1.50;;;16.90;98.40;;;;;;5099299;28;20063;-89
2021/08/07 03:32:22;;;;;;;2.15;1.17;;;16.90;98.50;;;;;;5099220;28;20345;-89
2021/08/07 03:34:53;;;;;;;2.90;1.23;;;16.90;98.50;;;;;;5100473;28;20046;-89
2021/08/07 03:37:21;;;;;;;1.63;1.35;;;16.90;98.50;;;;;;5107746;28;20036;-88
2021/08/07 03:39:47;;;;;;;1.58;1.40;;;16.90;98.60;;;;;;5100456;28;20036;-89
2021/08/07 03:42:17;;;;;;;4.07;1.55;;;16.80;98.60;;;;;;5099041;28;20124;-88
2021/08/07 03:44:50;;;;;;;2.13;1.08;;;16.80;98.50;;;;;;5099020;28;20032;-88
2021/08/07 03:47:29;;;;;;;3.20;1.25;;;16.80;98.50;;;;;;5098969;28;20039;-89
2021/08/07 03:50:03;;;;;;;2.22;1.33;;;16.80;98.50;;;;;;5099066;28;20032;-88
2021/08/07 03:52:39;;;;;;;2.83;1.70;;;16.90;98.50;;;;;;5099192;28;20036;-88
2021/08/07 03:55:07;;;;;;;1.92;1.20;;;16.90;98.60;;;;;;5098225;28;20056;-88
2021/08/07 04:01:05;;;;;;;2.22;1.60;;;16.90;98.50;;;;;;5090560;28;20047;-89
2021/08/07 04:03:30;;;;;;;3.83;1.60;;;16.80;98.60;;;;;;5098794;28;20093;-88
2021/08/07 04:05:56;;;;;;;8.00;1.52;;;16.80;98.70;;;;;;5099250;28;20055;-89
2021/08/07 04:08:27;;;;;;;3.97;1.15;;;16.80;98.70;;;;;;5098899;28;20043;-87
2021/08/07 04:10:53;;;;;;;2.65;1.60;;;16.80;98.70;;;;;;5105877;28;20042;-88
2021/08/07 04:13:18;;;;;;;2.13;1.42;;;16.80;98.70;;;;;;5109266;28;20044;-88
2021/08/07 04:15:44;;;;;;;4.60;1.85;;;16.80;98.80;;;;;;5098773;28;20036;-88
2021/08/07 04:18:16;;;;;;;3.35;1.10;;;16.80;98.80;;;;;;5099340;28;20398;-88
2021/08/07 04:20:42;;;;;;;2.78;1.50;;;16.80;98.70;;;;;;5131792;27;20431;-89
2021/08/07 04:23:10;;;;;;;4.13;1.42;;;16.80;98.70;;;;;;5098465;28;20036;-89
2021/08/07 04:25:44;;;;;;;3.63;1.50;;;16.90;98.70;;;;;;5098426;28;20040;-89
2021/08/07 04:28:13;;;;;;;3.03;1.20;;;16.90;98.60;;;;;;5097733;28;20051;-89
2021/08/07 04:30:57;;;;;;;3.00;1.33;;;16.90;98.60;;;;;;5099940;28;20472;-89
2021/08/07 04:33:27;;;;;;;2.95;1.50;;;16.90;98.60;;;;;;5106394;28;20040;-88
2021/08/07 04:35:53;;;;;;;1.38;1.20;;;17.00;98.60;;;;;;5100880;28;20386;-88
2021/08/07 04:38:33;;;;;;;2.13;1.42;;;17.00;98.60;;;;;;5104534;28;20136;-89
2021/08/07 04:41:01;;;;;;;3.45;1.20;;;17.00;98.50;;;;;;5098330;28;20043;-89
2021/08/07 04:43:41;;;;;;;2.72;1.50;;;17.00;98.60;;;;;;5098121;28;20344;-89
2021/08/07 04:46:12;;;;;;;3.55;1.40;;;17.00;98.60;;;;;;5109350;28;20032;-88
2021/08/07 04:49:05;;;;;;;2.45;1.15;;;17.10;98.50;;;;;;5099946;28;20032;-89
2021/08/07 04:51:48;;;;;;;1.85;1.20;;;17.10;98.80;;;;;;5094833;28;20131;-88
2021/08/07 04:54:25;;;;;;;1.60;1.17;;;17.10;98.50;;;;;;5098092;28;20043;-89
2021/08/07 04:56:59;;;;;;;2.40;1.40;;;17.10;98.40;;;;;;5098402;28;20072;-89
2021/08/07 04:59:50;;;;;;;1.50;1.30;;;17.10;98.40;;;;;;5113471;28;20071;-89
2021/08/07 05:13:32;;;;;;;4.22;1.10;;;17.20;98.40;;;;;;4857488;22;32206954;-87
2021/08/07 05:16:00;;;;;;;4.47;1.08;;;17.10;98.30;;;;;;6203986;23;20078;-89
2021/08/07 05:19:01;;;;;;;2.25;1.23;;;17.10;98.40;;;;;;6205205;23;20008;-89
2021/08/07 05:21:29;;;;;;;1.52;1.13;;;17.10;98.30;;;;;;6203865;23;20005;-88
2021/08/07 05:23:55;;;;;;;3.55;1.13;;;17.20;98.30;;;;;;6203608;23;20100;-88
2021/08/07 05:26:29;;;;;;;2.60;1.40;;;17.30;98.20;;;;;;6202552;23;20012;-88
2021/08/07 05:28:54;;;;;;;3.40;1.33;;;17.30;98.10;;;;;;6203683;23;20320;-87
2021/08/07 05:31:38;;;;;;;2.35;1.52;;;17.40;98.10;;;;;;6229411;23;20015;-89
2021/08/07 05:34:04;;;;;;;1.67;1.10;;;17.40;98.10;;;;;;6211487;23;20031;-88
2021/08/07 05:36:42;;;;;;;2.55;1.05;;;17.40;97.80;;;;;;6204506;23;20004;-88
2021/08/07 05:39:39;;;;;;;2.75;1.17;;;17.50;97.70;;;;;;6202945;23;20004;-90
2021/08/07 05:42:12;;;;;;;2.55;0.98;;;17.60;97.60;;;;;;6199721;23;20034;-89
2021/08/07 05:44:40;;;;;;;2.45;1.60;;;17.60;97.50;;;;;;6203256;23;20456;-88
2021/08/07 05:47:08;;;;;;;2.10;1.00;;;17.70;97.60;;;;;;6203394;23;20004;-89
2021/08/07 05:49:37;;;;;;;2.03;0.95;;;17.80;97.40;;;;;;6207095;23;20023;-87
2021/08/07 05:52:08;;;;;;;1.42;0.80;;;17.90;97.30;;;;;;6203090;23;20031;-88
2021/08/07 05:54:44;;;;;;;3.00;0.85;;;17.90;97.20;;;;;;6202365;23;20012;-88
2021/08/07 05:57:17;;;;;;;2.33;1.05;;;18.00;97.20;;;;;;6202211;23;20009;-88
2021/08/07 05:59:43;;;;;;;2.72;1.50;;;18.10;97.10;;;;;;6202672;23;20023;-87
2021/08/07 06:02:08;;;;;;;1.40;0.80;;;18.10;96.70;;;;;;6202975;23;20000;-89
2021/08/07 06:04:39;;;;;;;2.70;0.98;;;18.10;96.70;;;;;;6203019;23;20001;-88
2021/08/07 06:07:08;;;;;;;1.73;0.90;;;18.20;96.60;;;;;;6203292;23;20000;-87
2021/08/07 06:09:33;;;;;;;2.10;0.80;;;18.20;96.60;;;;;;6203103;23;20004;-88
2021/08/07 06:11:59;;;;;;;1.95;0.98;;;18.30;96.50;;;;;;6201778;23;20071;-88
2021/08/07 06:14:25;;;;;;;1.75;0.75;;;18.40;96.10;;;;;;6205009;23;20024;-88
2021/08/07 06:16:50;;;;;;;2.33;1.17;;;18.50;96.00;;;;;;6200601;23;20005;-88
2021/08/07 06:19:21;;;;;;;1.45;0.93;;;18.50;95.80;;;;;;6195277;23;20012;-87
2021/08/07 06:21:55;;;;;;;1.83;0.80;;;18.50;95.90;;;;;;6196071;23;20016;-88
2021/08/07 06:24:23;;;;;;;1.40;0.80;;;18.60;95.80;;;;;;6195715;23;20012;-88
2021/08/07 06:26:49;;;;;;;1.05;0.80;;;18.70;96.00;;;;;;6195480;23;20308;-88
2021/08/07 06:29:17;;;;;;;1.42;0.90;;;18.80;95.50;;;;;;6195392;23;20004;-89
2021/08/07 06:31:42;;;;;;;4.72;0.90;;;18.80;95.50;;;;;;6194599;23;20017;-88
2021/08/07 06:34:08;;;;;;;1.33;0.80;;;18.90;95.30;;;;;;6195863;23;20344;-88
2021/08/07 06:36:34;;;;;;;4.30;1.20;;;19.00;95.20;;;;;;6195569;23;20008;-89
2021/08/07 06:39:04;;;;;;;1.15;0.80;;;19.10;95.10;;;;;;6196860;23;20008;-89
2021/08/07 06:41:40;;;;;;;2.75;0.93;;;19.20;94.70;;;;;;6197904;23;20004;-89
2021/08/07 06:44:17;;;;;;;0.65;0.57;;;19.30;94.90;;;;;;6198727;23;20038;-89
2021/08/07 06:46:50;;;;;;;3.30;1.67;;;19.40;94.60;;;;;;6195857;23;20004;-88
2021/08/07 06:49:16;;;;;;;2.33;0.60;;;19.50;94.60;;;;;;6196964;23;20004;-89
2021/08/07 06:51:42;;;;;;;1.40;0.60;;;19.50;94.10;;;;;;6227397;23;20372;-88
2021/08/07 06:54:07;;;;;;;0.80;0.75;;;19.60;94.50;;;;;;6195290;23;20067;-89
2021/08/07 06:57:04;;;;;;;1.52;0.90;;;19.70;94.40;;;;;;6195946;23;20058;-88
2021/08/07 06:59:32;;;;;;;1.88;0.63;;;19.70;94.30;;;;;;6195170;23;20015;-89
2021/08/07 07:01:58;;;;;;;9.30;1.42;;;19.80;94.10;;;;;;6199771;23;20005;-89
2021/08/07 07:04:24;;;;;;;9.18;1.10;;;20.00;93.80;;;;;;6199482;23;20001;-88
2021/08/07 07:06:49;;;;;;;1.80;0.73;;;20.00;93.40;;;;;;6221026;23;20000;-88
2021/08/07 07:09:15;;;;;;;1.45;0.80;;;20.00;93.40;;;;;;6195364;23;20070;-89
2021/08/07 07:11:40;;;;;;;1.33;0.70;;;20.10;93.10;;;;;;6195178;23;20085;-88
2021/08/07 07:14:14;;;;;;;2.08;1.02;;;20.20;93.10;;;;;;6195351;23;20012;-89
2021/08/07 07:16:44;;;;;;;2.45;1.05;;;20.30;93.40;;;;;;6195090;23;20058;-89
2021/08/07 07:19:12;;;;;;;1.65;0.75;;;20.40;92.70;;;;;;6195312;23;20095;-88
2021/08/07 07:21:38;;;;;;;2.47;0.82;;;20.40;93.10;;;;;;6194104;23;20005;-88
2021/08/07 07:24:04;;;;;;;0.95;0.60;;;20.50;92.60;;;;;;6202135;23;20023;-89
2021/08/07 07:26:30;;;;;;;0.98;0.60;;;20.60;92.40;;;;;;6232675;23;20028;-90
2021/08/07 07:28:56;;;;;;;1.35;0.68;;;20.70;91.70;;;;;;6203594;23;20356;-87
2021/08/07 07:31:23;;;;;;;2.45;0.70;;;20.70;92.00;;;;;;6164618;23;20009;-87
2021/08/07 07:33:48;;;;;;;3.00;0.90;;;20.80;91.60;;;;;;6164629;23;20012;-88
2021/08/07 07:36:18;;;;;;;1.77;0.60;;;20.90;92.10;;;;;;6164059;23;20005;-88
2021/08/07 07:38:43;;;;;;;1.27;0.60;;;20.90;91.70;;;;;;6165544;23;20087;-88
2021/08/07 07:41:11;;;;;;;0.95;0.60;;;21.00;91.60;;;;;;6164628;23;20059;-88
2021/08/07 07:43:37;;;;;;;3.08;0.93;;;21.10;91.00;;;;;;6164753;23;20035;-89
2021/08/07 07:46:06;;;;;;;3.60;0.60;;;21.20;91.30;;;;;;6165435;23;20009;-89
2021/08/07 07:48:43;;;;;;;1.70;0.65;;;21.30;91.70;;;;;;6165005;23;20008;-89
2021/08/07 07:51:08;;;;;;;2.13;0.60;;;21.40;91.40;;;;;;6163299;23;20086;-90
2021/08/07 07:53:34;;;;;;;2.78;0.63;;;21.60;90.60;;;;;;6164726;23;20001;-88
2021/08/07 07:56:02;;;;;;;1.02;0.70;;;21.70;90.90;;;;;;6190029;23;20012;-89
2021/08/07 07:58:28;;;;;;;1.95;0.60;;;21.90;90.20;;;;;;6164367;23;20048;-87
2021/08/07 08:00:54;;;;;;;2.17;0.70;;;21.90;90.20;;;;;;6168325;23;20005;-89
2021/08/07 08:03:23;;;;;;;0.93;0.40;;;22.00;89.60;;;;;;6165791;23;20067;-89
2021/08/07 08:05:48;;;;;;;1.20;0.40;;;22.00;89.80;;;;;;6164887;23;20012;-89
2021/08/07 08:08:17;;;;;;;2.42;0.52;;;22.10;89.50;;;;;;6165014;23;20005;-89
2021/08/07 08:10:43;;;;;;;0.82;0.35;;;22.10;88.40;;;;;;6164040;23;20013;-89
2021/08/07 08:13:19;;;;;;;1.42;0.50;;;22.10;89.60;;;;;;6164818;23;20363;-88
2021/08/07 08:15:53;;;;;;;1.85;0.73;;;22.20;89.50;;;;;;6164689;23;20013;-87
2021/08/07 08:18:19;;;;;;;1.48;0.60;;;22.30;89.80;;;;;;6165170;23;20039;-89
2021/08/07 08:20:47;;;;;;;0.75;0.60;;;22.40;89.30;;;;;;6165302;23;20330;-90
2021/08/07 08:23:16;;;;;;;1.65;0.60;;;22.50;89.60;;;;;;6175241;23;20005;-90
2021/08/07 08:25:59;;;;;;;1.50;0.60;;;22.70;88.00;;;;;;6169225;23;20048;-88
2021/08/07 08:28:41;;;;;;;1.80;0.68;;;22.70;88.20;;;;;;6165351;23;20001;-89
2021/08/07 08:31:07;;;;;;;0.80;0.60;;;22.80;87.80;;;;;;6164302;23;20009;-87
2021/08/07 08:33:33;;;;;;;0.75;0.40;;;22.90;86.70;;;;;;6163371;23;20024;-88
2021/08/07 08:36:01;;;;;;;0.88;0.40;;;23.00;87.70;;;;;;6168689;23;20083;-89
2021/08/07 08:38:27;;;;;;;1.15;0.50;;;23.00;86.50;;;;;;6167817;23;20012;-89
2021/08/07 08:41:00;;;;;;;1.35;0.50;;;23.10;86.50;;;;;;6164211;23;20360;-89
2021/08/07 08:43:28;;;;;;;1.20;0.57;;;23.20;87.10;;;;;;6164187;23;20013;-88
2021/08/07 08:45:54;;;;;;;0.73;0.60;;;23.30;86.20;;;;;;6164081;23;19997;-87
2021/08/07 08:48:30;;;;;;;1.63;0.60;;;23.40;85.00;;;;;;6190164;23;20004;-89
2021/08/07 08:50:58;;;;;;;1.35;0.50;;;23.50;85.80;;;;;;6164658;23;20313;-88
2021/08/07 08:53:35;;;;;;;1.98;1.08;;;23.70;86.30;;;;;;6190023;23;20033;-90
2021/08/07 08:56:01;;;;;;;6.13;0.55;;;23.80;84.50;;;;;;6191663;23;20028;-88
2021/08/07 08:58:39;;;;;;;1.10;0.40;;;23.80;83.00;;;;;;6170826;23;20326;-89
2021/08/07 09:01:13;;;;;;;1.10;0.40;;;23.90;83.10;;;;;;6164849;23;20039;-89
2021/08/07 09:03:38;;;;;;;2.83;0.45;;;23.90;80.80;;;;;;6164367;23;20001;-87
2021/08/07 09:06:11;;;;;;;1.17;0.40;;;24.00;82.60;;;;;;6163763;23;20373;-89
2021/08/07 09:08:40;;;;;;;1.75;0.40;;;24.00;83.10;;;;;;6164244;23;20008;-88
2021/08/07 09:11:16;;;;;;;0.40;0.40;;;24.10;81.40;;;;;;6189412;23;20015;-90
2021/08/07 09:13:46;;;;;;;0.63;0.40;;;24.20;81.60;;;;;;6163923;23;20020;-89
2021/08/07 09:16:12;;;;;;;0.90;0.40;;;24.30;81.10;;;;;;6172593;23;20009;-89
2021/08/07 09:18:54;;;;;;;1.02;0.50;;;24.50;83.30;;;;;;6192344;23;20072;-89
2021/08/07 09:21:20;;;;;;;0.75;0.32;;;24.60;79.20;;;;;;6163500;23;20012;-89
2021/08/07 09:23:46;;;;;;;0.63;0.40;;;24.70;79.10;;;;;;6189906;23;20004;-87
2021/08/07 09:26:17;;;;;;;0.88;0.43;;;24.70;78.30;;;;;;6164396;23;20511;-90
2021/08/07 09:29:01;;;;;;;0.40;0.40;;;24.70;79.40;;;;;;6189674;23;20001;-88
2021/08/07 09:31:27;;;;;;;0.77;0.40;;;24.70;78.00;;;;;;6195932;23;20055;-89
2021/08/07 09:34:16;;;;;;;2.38;0.50;;;24.60;79.20;;;;;;6174355;23;20044;-88
2021/08/07 09:36:49;;;;;;;0.70;0.40;;;24.50;80.40;;;;;;6164114;23;20032;-88
2021/08/07 09:39:15;;;;;;;2.58;0.40;;;24.50;78.90;;;;;;6163236;23;20009;-88
2021/08/07 09:42:06;;;;;;;0.95;0.57;;;24.50;77.70;;;;;;6163685;23;20013;-88
2021/08/07 09:44:31;;;;;;;0.70;0.40;;;24.60;78.90;;;;;;6163712;23;20005;-88
2021/08/07 09:47:15;;;;;;;2.75;0.60;;;24.70;78.50;;;;;;6163949;23;20210;-89
2021/08/07 09:49:42;;;;;;;0.57;0.40;;;24.80;78.50;;;;;;6165276;23;20005;-89
2021/08/07 09:52:09;;;;;;;4.22;0.50;;;24.90;78.70;;;;;;6165783;23;20009;-90
2021/08/07 09:54:42;;;;;;;1.85;0.70;;;25.00;79.10;;;;;;6165529;23;20016;-89
2021/08/07 09:57:10;;;;;;;0.63;0.32;;;25.20;79.00;;;;;;6165743;23;20001;-90
2021/08/07 09:59:49;;;;;;;2.80;0.50;;;25.30;79.00;;;;;;6170692;23;20000;-89
2021/08/07 10:02:24;;;;;;;0.63;0.40;;;25.40;77.40;;;;;;6166324;23;20096;-89
2021/08/07 10:04:50;;;;;;;1.00;0.40;;;25.40;77.40;;;;;;6172439;23;20015;-89
2021/08/07 10:07:15;;;;;;;2.55;0.55;;;25.50;77.70;;;;;;6198231;23;20009;-91
2021/08/07 10:09:41;;;;;;;1.80;0.68;;;25.60;78.20;;;;;;6191023;23;20012;-88
2021/08/07 10:12:09;;;;;;;0.77;0.32;;;25.60;76.40;;;;;;6165272;23;20008;-89
2021/08/07 10:14:39;;;;;;;0.55;0.50;;;25.60;78.70;;;;;;6191252;23;20001;-90
2021/08/07 10:17:08;;;;;;;0.93;0.50;;;25.70;79.10;;;;;;6164377;23;20016;-89
2021/08/07 10:19:35;;;;;;;0.85;0.60;;;25.70;76.00;;;;;;6190942;23;20009;-90
2021/08/07 10:22:14;;;;;;;0.88;0.40;;;25.70;78.40;;;;;;6165101;23;20005;-89
2021/08/07 10:24:42;;;;;;;0.50;0.32;;;25.80;76.00;;;;;;6190702;23;20036;-89
2021/08/07 10:27:09;;;;;;;0.82;0.60;;;25.80;74.50;;;;;;6164694;23;20012;-90
2021/08/07 10:29:39;;;;;;;1.08;0.57;;;25.80;77.00;;;;;;6175373;23;20036;-89
2021/08/07 10:32:06;;;;;;;0.90;0.40;;;25.90;76.10;;;;;;6168337;23;20015;-90
2021/08/07 10:34:35;;;;;;;0.68;0.40;;;26.00;75.00;;;;;;6164719;23;20373;-88
2021/08/07 10:37:01;;;;;;;0.75;0.60;;;26.10;76.10;;;;;;6165213;23;20253;-89
2021/08/07 10:39:29;;;;;;;0.70;0.50;;;26.20;75.70;;;;;;6165432;23;20016;-89
2021/08/07 10:41:59;;;;;;;1.25;0.43;;;26.30;75.30;;;;;;6206135;23;19985;-90
2021/08/07 10:44:25;;;;;;;0.77;0.50;;;26.40;74.80;;;;;;6195662;23;20005;-89
2021/08/07 10:46:55;;;;;;;1.63;0.55;;;26.60;73.40;;;;;;6164949;23;20344;-90
2021/08/07 10:49:37;;;;;;;0.63;0.35;;;26.70;74.30;;;;;;6164683;23;20005;-88
2021/08/07 10:52:22;;;;;;;0.52;0.40;;;26.80;73.70;;;;;;6190506;23;20013;-89
2021/08/07 10:54:57;;;;;;;13.05;0.65;;;26.90;72.80;;;;;;6190200;23;20012;-89
2021/08/07 10:57:41;;;;;;;1.60;0.40;;;27.00;73.80;;;;;;6190483;23;20033;-89
2021/08/07 11:00:15;;;;;;;0.77;0.40;;;27.20;72.60;;;;;;6190369;23;20020;-89
2021/08/07 11:02:41;;;;;;;1.90;0.60;;;27.20;69.30;;;;;;6191022;23;20103;-88
2021/08/07 11:05:07;;;;;;;0.90;0.40;;;27.30;72.50;;;;;;6164435;23;20063;-88
2021/08/07 11:07:34;;;;;;;1.85;0.47;;;27.30;70.10;;;;;;6190348;23;20012;-88
2021/08/07 11:10:01;;;;;;;0.68;0.30;;;27.40;71.50;;;;;;6164430;23;20001;-89
2021/08/07 11:12:28;;;;;;;1.08;0.45;;;27.50;68.00;;;;;;6164234;23;20215;-88
2021/08/07 11:14:56;;;;;;;2.85;0.40;;;27.50;68.60;;;;;;6164938;23;20009;-89
2021/08/07 11:17:29;;;;;;;1.75;0.50;;;27.60;69.30;;;;;;6173305;23;20020;-89
2021/08/07 11:20:05;;;;;;;2.65;0.43;;;27.60;70.20;;;;;;6166460;23;20070;-88
2021/08/07 11:22:35;;;;;;;0.77;0.40;;;27.80;69.00;;;;;;6163938;23;20009;-88
2021/08/07 11:25:10;;;;;;;0.93;0.50;;;27.80;69.30;;;;;;6189833;23;20004;-88
2021/08/07 11:30:34;;;;;;;2.10;0.32;;;28.00;69.30;;;;;;6190255;23;20130;-88
2021/08/07 11:33:00;;;;;;;1.67;0.40;;;28.10;67.90;;;;;;6189819;23;20080;-88
2021/08/07 11:35:32;;;;;;;0.73;0.30;;;28.10;67.50;;;;;;6164531;23;20004;-89
2021/08/07 11:38:06;;;;;;;1.10;0.38;;;28.00;67.40;;;;;;6190186;23;20021;-88
2021/08/07 11:41:05;;;;;;;1.23;0.60;;;28.00;68.50;;;;;;6189898;23;20313;-89
2021/08/07 11:43:35;;;;;;;1.30;0.45;;;28.00;67.30;;;;;;6164521;23;20016;-89
2021/08/07 11:46:04;;;;;;;1.42;0.30;;;28.00;67.60;;;;;;6170737;23;20033;-88
2021/08/07 11:48:38;;;;;;;2.05;0.90;;;28.00;65.20;;;;;;6163786;23;20011;-89
2021/08/07 11:51:07;;;;;;;1.15;0.40;;;28.00;65.50;;;;;;6189308;23;20293;-88
2021/08/07 11:53:34;;;;;;;1.42;0.50;;;28.20;66.30;;;;;;6163708;23;20032;-88
2021/08/07 11:56:01;;;;;;;1.73;0.40;;;28.20;65.60;;;;;;6163643;23;20005;-88
2021/08/07 11:58:27;;;;;;;1.42;0.60;;;28.30;66.10;;;;;;6189571;23;20028;-87
2021/08/07 12:01:01;;;;;;;2.20;0.40;;;28.50;67.00;;;;;;6163459;23;20043;-87
2021/08/07 12:03:27;;;;;;;1.20;0.40;;;28.50;63.80;;;;;;6163819;23;20285;-87
2021/08/07 12:05:54;;;;;;;1.08;0.40;;;28.50;66.10;;;;;;6164088;23;20009;-87
2021/08/07 12:08:20;;;;;;;1.90;0.43;;;28.60;67.30;;;;;;6189862;23;20024;-89
2021/08/07 12:10:52;;;;;;;0.80;0.32;;;28.70;62.50;;;;;;6163956;23;20037;-87
2021/08/07 12:13:19;;;;;;;1.35;0.30;;;28.70;63.60;;;;;;6168497;23;20016;-89
2021/08/07 12:16:03;;;;;;;2.33;0.60;;;28.70;64.10;;;;;;6172426;23;20020;-87
2021/08/07 12:18:51;;;;;;;1.63;0.47;;;28.80;65.70;;;;;;6166099;23;20136;-88
2021/08/07 12:21:22;;;;;;;0.65;0.32;;;28.80;66.90;;;;;;6164460;23;20013;-90
2021/08/07 12:23:51;;;;;;;0.88;0.40;;;28.90;63.70;;;;;;6190281;23;20004;-88
2021/08/07 12:26:19;;;;;;;0.95;0.40;;;29.00;63.80;;;;;;6189913;23;20068;-88
2021/08/07 12:28:45;;;;;;;1.88;0.55;;;28.90;62.90;;;;;;6165694;23;20067;-90
2021/08/07 12:31:12;;;;;;;1.50;0.55;;;28.90;62.80;;;;;;6164981;23;20009;-89
2021/08/07 12:33:41;;;;;;;1.63;0.60;;;28.80;62.70;;;;;;6164816;23;20333;-89
2021/08/07 12:36:23;;;;;;;2.10;0.50;;;28.60;62.70;;;;;;6166044;23;20005;-90
2021/08/07 12:38:51;;;;;;;1.20;0.50;;;28.60;62.30;;;;;;6164791;23;20326;-88
2021/08/07 12:41:22;;;;;;;1.48;0.73;;;28.50;62.00;;;;;;6165463;23;20281;-88
2021/08/07 12:43:48;;;;;;;1.65;0.55;;;28.40;63.70;;;;;;6164819;23;20065;-90
2021/08/07 12:46:16;;;;;;;3.58;0.57;;;28.30;66.10;;;;;;6165031;23;20020;-89
2021/08/07 12:48:59;;;;;;;2.55;1.35;;;28.30;63.70;;;;;;6173298;23;20006;-90
2021/08/07 12:51:34;;;;;;;2.03;0.43;;;28.30;65.20;;;;;;6176212;23;20005;-89
2021/08/07 12:54:03;;;;;;;1.08;0.50;;;28.20;63.00;;;;;;6166403;23;20009;-89
2021/08/07 12:56:30;;;;;;;1.67;0.75;;;28.20;64.20;;;;;;6165307;23;20008;-91
2021/08/07 12:59:07;;;;;;;2.88;0.63;;;28.20;65.80;;;;;;6165378;23;20333;-91
2021/08/07 13:01:58;;;;;;;0.80;0.43;;;28.10;64.70;;;;;;6174828;23;20036;-88
2021/08/07 13:04:42;;;;;;;1.50;0.52;;;28.10;64.60;;;;;;6165686;23;20001;-89
2021/08/07 13:07:08;;;;;;;5.05;0.50;;;28.10;64.20;;;;;;6164569;23;20011;-89
2021/08/07 13:09:34;;;;;;;2.38;0.57;;;28.20;65.10;;;;;;6165130;23;20032;-91
2021/08/07 13:12:10;;;;;;;1.92;0.40;;;28.20;67.90;;;;;;6165224;23;20056;-89
2021/08/07 13:14:38;;;;;;;1.48;0.80;;;28.30;64.10;;;;;;6164666;23;20388;-89
2021/08/07 13:17:05;;;;;;;2.70;0.50;;;28.40;66.70;;;;;;6164706;23;20009;-90
2021/08/07 13:19:51;;;;;;;2.42;0.60;;;28.60;65.70;;;;;;6190737;23;20005;-88
2021/08/07 13:22:45;;;;;;;0.95;0.50;;;28.60;66.10;;;;;;6164954;23;20009;-89
2021/08/07 17:23:33;;;;;;;3.85;1.05;;;24.30;80.70;;;;;;5770696;24;20024;-91
2021/08/07 17:26:36;;;;;;;2.53;1.65;;;24.00;82.90;;;;;;5749153;24;20035;-92
2021/08/07 17:29:50;;;;;;;1.63;1.00;;;23.80;84.70;;;;;;5794412;24;20015;-90
2021/08/07 17:32:56;;;;;;;3.05;1.08;;;23.50;87.90;;;;;;5828690;24;20012;-89
2021/08/07 17:49:14;;;;;;;;;;;;;;;;;;;;;
2021/08/07 17:52:21;;;;;;;2.65;1.25;;;22.30;93.20;;;;;;6015184;23;20042;-89
2021/08/07 17:55:34;;;;;;;;;;;;;;;;;;;;;
2021/08/07 17:59:01;;;;;;;;;;;;;;;;;;;;;
2021/08/07 18:04:52;;;;;;;3.05;2.00;;;21.60;95.30;;;;;;6015803;23;20016;-90
2021/08/07 18:07:18;;;;;;;2.83;1.63;;;21.40;95.20;;;;;;6076439;23;20008;-88
2021/08/07 18:10:12;;;;;;;3.83;1.33;;;21.40;95.60;;;;;;6136158;23;20029;-90
2021/08/07 18:12:52;;;;;;;2.10;1.20;;;21.30;95.60;;;;;;6137357;23;20331;-89
2021/08/07 18:15:52;;;;;;;4.65;1.67;;;21.30;96.00;;;;;;6164317;23;20006;-89
2021/08/07 18:21:46;;;;;;;3.53;1.15;;;21.10;96.20;;;;;;6198989;23;20013;-89
2021/08/07 18:24:33;;;;;;;;;;;;;;;;;;;;;
2021/08/07 18:27:16;;;;;;;2.33;1.40;;;21.00;96.30;;;;;;6193795;23;20039;-90
2021/08/07 18:29:51;;;;;;;4.20;1.45;;;21.00;96.40;;;;;;6166346;23;20301;-89
2021/08/07 18:32:50;;;;;;;2.13;1.42;;;20.90;96.10;;;;;;6130907;23;20010;-89
2021/08/07 18:39:20;;;;;;;;;;;;;;;;;;;;;
2021/08/07 18:45:38;;;;;;;4.70;1.40;;;20.80;96.40;;;;;;6171878;23;20301;-90
2021/08/07 18:48:32;;;;;;;4.53;1.70;;;20.80;96.50;;;;;;6158809;23;20013;-90
2021/08/07 18:51:01;;;;;;;2.03;1.25;;;20.70;96.40;;;;;;6149520;23;20348;-88
2021/08/07 18:54:07;;;;;;;3.53;1.33;;;20.70;96.30;;;;;;6167530;23;20400;-90